sensor_id;sensor_type;location;lat;lon;timestamp;P1;durP1;ratioP1;P2;durP2;ratioP2
60582;SDS011;46415;47.536;19.066;2022-08-11T00:01:33;4.60;;;2.40;;
60582;SDS011;46415;47.536;19.066;2022-08-11T00:04:36;5.85;;;2.50;;
60582;SDS011;46415;47.536;19.066;2022-08-11T00:07:42;3.92;;;2.20;;
60582;SDS011;46415;47.536;19.066;2022-08-11T00:10:50;2.58;;;1.90;;
60582;SDS011;46415;47.536;19.066;2022-08-11T00:13:57;3.67;;;2.20;;
60582;SDS011;46415;47.536;19.066;2022-08-11T00:17:02;2.10;;;2.00;;
60582;SDS011;46415;47.536;19.066;2022-08-11T00:20:15;2.92;;;2.03;;
60582;SDS011;46415;47.536;19.066;2022-08-11T00:23:19;2.40;;;2.10;;
60582;SDS011;46415;47.536;19.066;2022-08-11T00:26:22;2.90;;;1.83;;
60582;SDS011;46415;47.536;19.066;2022-08-11T00:29:26;2.90;;;1.70;;
60582;SDS011;46415;47.536;19.066;2022-08-11T00:32:29;2.87;;;2.05;;
60582;SDS011;46415;47.536;19.066;2022-08-11T00:35:33;3.60;;;1.75;;
60582;SDS011;46415;47.536;19.066;2022-08-11T00:39:01;1.92;;;1.83;;
60582;SDS011;46415;47.536;19.066;2022-08-11T00:48:49;1.87;;;1.77;;
60582;SDS011;46415;47.536;19.066;2022-08-11T00:52:20;2.12;;;2.03;;
60582;SDS011;46415;47.536;19.066;2022-08-11T01:02:52;2.12;;;2.00;;
60582;SDS011;46415;47.536;19.066;2022-08-11T01:45:34;3.62;;;2.08;;
60582;SDS011;46415;47.536;19.066;2022-08-11T01:49:00;2.45;;;1.80;;
60582;SDS011;46415;47.536;19.066;2022-08-11T01:59:40;2.15;;;1.95;;
60582;SDS011;46415;47.536;19.066;2022-08-11T02:06:11;1.80;;;1.70;;
60582;SDS011;46415;47.536;19.066;2022-08-11T02:09:52;2.50;;;1.92;;
60582;SDS011;46415;47.536;19.066;2022-08-11T02:17:30;2.47;;;1.85;;
60582;SDS011;46415;47.536;19.066;2022-08-11T02:20:55;3.70;;;1.90;;
60582;SDS011;46415;47.536;19.066;2022-08-11T02:24:22;4.10;;;1.80;;
60582;SDS011;46415;47.536;19.066;2022-08-11T02:27:40;2.55;;;1.80;;
60582;SDS011;46415;47.536;19.066;2022-08-11T02:31:06;3.45;;;1.90;;
60582;SDS011;46415;47.536;19.066;2022-08-11T02:42:04;4.47;;;2.37;;
60582;SDS011;46415;47.536;19.066;2022-08-11T02:52:35;5.18;;;2.25;;
60582;SDS011;46415;47.536;19.066;2022-08-11T02:59:18;2.65;;;2.20;;
60582;SDS011;46415;47.536;19.066;2022-08-11T03:02:57;3.35;;;2.12;;
60582;SDS011;46415;47.536;19.066;2022-08-11T03:06:09;1.90;;;1.80;;
60582;SDS011;46415;47.536;19.066;2022-08-11T03:09:24;3.17;;;2.08;;
60582;SDS011;46415;47.536;19.066;2022-08-11T03:16:16;4.82;;;2.20;;
60582;SDS011;46415;47.536;19.066;2022-08-11T03:36:40;8.40;;;2.50;;
60582;SDS011;46415;47.536;19.066;2022-08-11T03:43:58;2.00;;;1.80;;
60582;SDS011;46415;47.536;19.066;2022-08-11T03:54:19;6.95;;;2.10;;
60582;SDS011;46415;47.536;19.066;2022-08-11T04:11:29;1.95;;;1.70;;
60582;SDS011;46415;47.536;19.066;2022-08-11T04:25:50;4.03;;;2.30;;
60582;SDS011;46415;47.536;19.066;2022-08-11T04:36:05;2.17;;;1.90;;
60582;SDS011;46415;47.536;19.066;2022-08-11T04:39:55;4.37;;;2.08;;
60582;SDS011;46415;47.536;19.066;2022-08-11T04:46:39;5.60;;;1.80;;
60582;SDS011;46415;47.536;19.066;2022-08-11T04:58:11;5.18;;;2.30;;
60582;SDS011;46415;47.536;19.066;2022-08-11T05:06:03;4.32;;;2.10;;
60582;SDS011;46415;47.536;19.066;2022-08-11T05:09:06;2.35;;;1.87;;
60582;SDS011;46415;47.536;19.066;2022-08-11T05:12:28;2.47;;;1.80;;
60582;SDS011;46415;47.536;19.066;2022-08-11T05:15:35;2.17;;;1.98;;
60582;SDS011;46415;47.536;19.066;2022-08-11T05:19:07;4.10;;;2.17;;
60582;SDS011;46415;47.536;19.066;2022-08-11T05:22:37;4.70;;;1.85;;
60582;SDS011;46415;47.536;19.066;2022-08-11T05:26:09;2.75;;;1.90;;
60582;SDS011;46415;47.536;19.066;2022-08-11T05:29:54;8.45;;;2.50;;
60582;SDS011;46415;47.536;19.066;2022-08-11T05:33:29;3.33;;;2.15;;
60582;SDS011;46415;47.536;19.066;2022-08-11T05:40:30;3.97;;;1.83;;
60582;SDS011;46415;47.536;19.066;2022-08-11T05:44:01;2.60;;;1.85;;
60582;SDS011;46415;47.536;19.066;2022-08-11T05:47:24;3.97;;;2.30;;
60582;SDS011;46415;47.536;19.066;2022-08-11T05:50:51;5.15;;;2.17;;
60582;SDS011;46415;47.536;19.066;2022-08-11T05:54:17;2.42;;;2.10;;
60582;SDS011;46415;47.536;19.066;2022-08-11T05:57:40;4.40;;;2.15;;
60582;SDS011;46415;47.536;19.066;2022-08-11T06:00:53;3.87;;;1.90;;
60582;SDS011;46415;47.536;19.066;2022-08-11T06:03:59;2.20;;;2.00;;
60582;SDS011;46415;47.536;19.066;2022-08-11T06:07:16;3.22;;;1.60;;
60582;SDS011;46415;47.536;19.066;2022-08-11T06:10:34;2.87;;;1.60;;
60582;SDS011;46415;47.536;19.066;2022-08-11T06:13:42;5.60;;;1.52;;
60582;SDS011;46415;47.536;19.066;2022-08-11T06:16:48;1.58;;;1.48;;
60582;SDS011;46415;47.536;19.066;2022-08-11T06:19:57;1.87;;;1.67;;
60582;SDS011;46415;47.536;19.066;2022-08-11T06:23:09;4.43;;;2.00;;
60582;SDS011;46415;47.536;19.066;2022-08-11T06:26:12;2.25;;;1.80;;
60582;SDS011;46415;47.536;19.066;2022-08-11T06:29:17;2.08;;;1.87;;
60582;SDS011;46415;47.536;19.066;2022-08-11T06:32:22;3.95;;;1.67;;
60582;SDS011;46415;47.536;19.066;2022-08-11T06:38:52;3.35;;;1.90;;
60582;SDS011;46415;47.536;19.066;2022-08-11T06:42:33;5.75;;;2.10;;
60582;SDS011;46415;47.536;19.066;2022-08-11T06:48:50;1.45;;;1.37;;
60582;SDS011;46415;47.536;19.066;2022-08-11T06:51:55;1.52;;;1.42;;
60582;SDS011;46415;47.536;19.066;2022-08-11T06:55:05;3.67;;;1.98;;
60582;SDS011;46415;47.536;19.066;2022-08-11T06:58:34;3.45;;;1.48;;
60582;SDS011;46415;47.536;19.066;2022-08-11T07:02:06;3.53;;;1.70;;
60582;SDS011;46415;47.536;19.066;2022-08-11T07:05:20;1.92;;;1.73;;
60582;SDS011;46415;47.536;19.066;2022-08-11T07:12:18;5.95;;;1.85;;
60582;SDS011;46415;47.536;19.066;2022-08-11T07:15:57;2.62;;;1.62;;
60582;SDS011;46415;47.536;19.066;2022-08-11T07:19:16;1.95;;;1.75;;
60582;SDS011;46415;47.536;19.066;2022-08-11T07:22:45;3.97;;;1.70;;
60582;SDS011;46415;47.536;19.066;2022-08-11T07:26:15;6.07;;;1.60;;
60582;SDS011;46415;47.536;19.066;2022-08-11T07:29:39;5.05;;;1.67;;
60582;SDS011;46415;47.536;19.066;2022-08-11T07:32:50;1.95;;;1.67;;
60582;SDS011;46415;47.536;19.066;2022-08-11T07:35:56;3.08;;;1.90;;
60582;SDS011;46415;47.536;19.066;2022-08-11T07:39:01;3.10;;;1.60;;
60582;SDS011;46415;47.536;19.066;2022-08-11T07:42:11;3.37;;;1.83;;
60582;SDS011;46415;47.536;19.066;2022-08-11T07:45:16;2.67;;;1.55;;
60582;SDS011;46415;47.536;19.066;2022-08-11T07:48:38;1.75;;;1.65;;
60582;SDS011;46415;47.536;19.066;2022-08-11T07:52:01;3.22;;;1.67;;
60582;SDS011;46415;47.536;19.066;2022-08-11T07:55:23;2.67;;;1.75;;
60582;SDS011;46415;47.536;19.066;2022-08-11T07:58:47;3.22;;;1.95;;
60582;SDS011;46415;47.536;19.066;2022-08-11T08:02:11;2.87;;;1.67;;
60582;SDS011;46415;47.536;19.066;2022-08-11T08:05:33;2.37;;;1.92;;
60582;SDS011;46415;47.536;19.066;2022-08-11T08:08:55;2.97;;;1.65;;
60582;SDS011;46415;47.536;19.066;2022-08-11T08:12:21;4.45;;;1.90;;
60582;SDS011;46415;47.536;19.066;2022-08-11T08:15:44;1.90;;;1.80;;
60582;SDS011;46415;47.536;19.066;2022-08-11T08:19:06;2.90;;;2.40;;
60582;SDS011;46415;47.536;19.066;2022-08-11T08:22:10;2.00;;;1.70;;
60582;SDS011;46415;47.536;19.066;2022-08-11T08:25:37;1.62;;;1.52;;
60582;SDS011;46415;47.536;19.066;2022-08-11T08:28:42;1.90;;;1.80;;
60582;SDS011;46415;47.536;19.066;2022-08-11T08:31:48;1.45;;;1.33;;
60582;SDS011;46415;47.536;19.066;2022-08-11T08:34:51;1.52;;;1.42;;
60582;SDS011;46415;47.536;19.066;2022-08-11T08:37:56;2.42;;;1.80;;
60582;SDS011;46415;47.536;19.066;2022-08-11T08:41:00;1.58;;;1.48;;
60582;SDS011;46415;47.536;19.066;2022-08-11T08:44:07;2.55;;;2.08;;
60582;SDS011;46415;47.536;19.066;2022-08-11T08:47:36;2.03;;;1.52;;
60582;SDS011;46415;47.536;19.066;2022-08-11T08:51:18;2.75;;;1.40;;
60582;SDS011;46415;47.536;19.066;2022-08-11T08:54:54;1.73;;;1.60;;
60582;SDS011;46415;47.536;19.066;2022-08-11T08:57:59;1.85;;;1.45;;
60582;SDS011;46415;47.536;19.066;2022-08-11T09:01:03;1.67;;;1.58;;
60582;SDS011;46415;47.536;19.066;2022-08-11T09:04:07;4.15;;;1.55;;
60582;SDS011;46415;47.536;19.066;2022-08-11T09:10:21;3.80;;;1.30;;
60582;SDS011;46415;47.536;19.066;2022-08-11T09:13:25;1.98;;;1.08;;
60582;SDS011;46415;47.536;19.066;2022-08-11T09:16:29;0.93;;;0.90;;
60582;SDS011;46415;47.536;19.066;2022-08-11T09:19:32;1.80;;;1.17;;
60582;SDS011;46415;47.536;19.066;2022-08-11T09:22:36;2.90;;;1.62;;
60582;SDS011;46415;47.536;19.066;2022-08-11T09:26:19;3.28;;;1.40;;
60582;SDS011;46415;47.536;19.066;2022-08-11T09:29:42;3.30;;;1.37;;
60582;SDS011;46415;47.536;19.066;2022-08-11T09:32:46;1.85;;;1.05;;
60582;SDS011;46415;47.536;19.066;2022-08-11T09:35:50;2.20;;;1.30;;
60582;SDS011;46415;47.536;19.066;2022-08-11T09:38:54;1.42;;;1.20;;
60582;SDS011;46415;47.536;19.066;2022-08-11T09:42:17;1.42;;;1.30;;
60582;SDS011;46415;47.536;19.066;2022-08-11T09:45:24;1.20;;;1.10;;
60582;SDS011;46415;47.536;19.066;2022-08-11T09:48:43;1.67;;;1.50;;
60582;SDS011;46415;47.536;19.066;2022-08-11T09:51:47;1.60;;;1.40;;
60582;SDS011;46415;47.536;19.066;2022-08-11T09:55:06;1.55;;;1.40;;
60582;SDS011;46415;47.536;19.066;2022-08-11T09:58:12;1.40;;;1.30;;
60582;SDS011;46415;47.536;19.066;2022-08-11T10:01:38;1.92;;;1.30;;
60582;SDS011;46415;47.536;19.066;2022-08-11T10:04:48;1.10;;;1.10;;
60582;SDS011;46415;47.536;19.066;2022-08-11T10:08:17;1.33;;;1.23;;
60582;SDS011;46415;47.536;19.066;2022-08-11T10:11:22;1.30;;;1.20;;
60582;SDS011;46415;47.536;19.066;2022-08-11T10:14:26;3.65;;;1.67;;
60582;SDS011;46415;47.536;19.066;2022-08-11T10:17:52;2.15;;;1.20;;
60582;SDS011;46415;47.536;19.066;2022-08-11T10:21:22;2.60;;;1.30;;
60582;SDS011;46415;47.536;19.066;2022-08-11T10:24:32;1.85;;;1.25;;
60582;SDS011;46415;47.536;19.066;2022-08-11T10:27:53;1.33;;;1.15;;
60582;SDS011;46415;47.536;19.066;2022-08-11T10:31:21;2.00;;;1.40;;
60582;SDS011;46415;47.536;19.066;2022-08-11T10:35:03;3.30;;;1.35;;
60582;SDS011;46415;47.536;19.066;2022-08-11T10:38:08;2.05;;;1.40;;
60582;SDS011;46415;47.536;19.066;2022-08-11T10:41:14;1.30;;;1.20;;
60582;SDS011;46415;47.536;19.066;2022-08-11T10:44:40;0.93;;;0.93;;
60582;SDS011;46415;47.536;19.066;2022-08-11T10:47:46;0.98;;;0.98;;
60582;SDS011;46415;47.536;19.066;2022-08-11T10:50:51;1.27;;;1.17;;
60582;SDS011;46415;47.536;19.066;2022-08-11T10:54:14;1.42;;;1.20;;
60582;SDS011;46415;47.536;19.066;2022-08-11T10:57:35;1.55;;;1.10;;
60582;SDS011;46415;47.536;19.066;2022-08-11T11:01:07;3.08;;;1.23;;
60582;SDS011;46415;47.536;19.066;2022-08-11T11:04:16;1.73;;;1.27;;
60582;SDS011;46415;47.536;19.066;2022-08-11T11:07:21;1.37;;;1.27;;
60582;SDS011;46415;47.536;19.066;2022-08-11T11:10:26;6.47;;;1.20;;
60582;SDS011;46415;47.536;19.066;2022-08-11T11:13:29;1.45;;;1.35;;
60582;SDS011;46415;47.536;19.066;2022-08-11T11:20:24;3.78;;;1.33;;
60582;SDS011;46415;47.536;19.066;2022-08-11T11:23:40;1.80;;;1.10;;
60582;SDS011;46415;47.536;19.066;2022-08-11T11:26:56;1.40;;;1.20;;
60582;SDS011;46415;47.536;19.066;2022-08-11T11:30:09;3.25;;;1.45;;
60582;SDS011;46415;47.536;19.066;2022-08-11T11:33:22;2.53;;;1.42;;
60582;SDS011;46415;47.536;19.066;2022-08-11T11:36:42;1.67;;;1.40;;
60582;SDS011;46415;47.536;19.066;2022-08-11T11:39:48;1.70;;;1.10;;
60582;SDS011;46415;47.536;19.066;2022-08-11T11:42:52;1.20;;;1.12;;
60582;SDS011;46415;47.536;19.066;2022-08-11T11:45:58;1.60;;;1.20;;
60582;SDS011;46415;47.536;19.066;2022-08-11T11:49:01;1.15;;;0.90;;
60582;SDS011;46415;47.536;19.066;2022-08-11T11:52:18;1.23;;;1.00;;
60582;SDS011;46415;47.536;19.066;2022-08-11T11:55:23;1.17;;;0.85;;
60582;SDS011;46415;47.536;19.066;2022-08-11T11:58:27;2.40;;;1.35;;
60582;SDS011;46415;47.536;19.066;2022-08-11T12:01:49;1.33;;;1.23;;
60582;SDS011;46415;47.536;19.066;2022-08-11T12:04:54;0.77;;;0.77;;
60582;SDS011;46415;47.536;19.066;2022-08-11T12:07:57;2.20;;;1.12;;
60582;SDS011;46415;47.536;19.066;2022-08-11T12:11:20;1.42;;;1.33;;
60582;SDS011;46415;47.536;19.066;2022-08-11T12:14:44;0.98;;;0.98;;
60582;SDS011;46415;47.536;19.066;2022-08-11T12:17:47;0.75;;;0.73;;
60582;SDS011;46415;47.536;19.066;2022-08-11T12:20:54;1.52;;;1.10;;
60582;SDS011;46415;47.536;19.066;2022-08-11T12:23:58;2.60;;;1.45;;
60582;SDS011;46415;47.536;19.066;2022-08-11T12:27:22;1.15;;;1.05;;
60582;SDS011;46415;47.536;19.066;2022-08-11T12:30:27;2.03;;;0.90;;
60582;SDS011;46415;47.536;19.066;2022-08-11T12:33:30;2.15;;;0.90;;
60582;SDS011;46415;47.536;19.066;2022-08-11T12:36:38;1.20;;;1.00;;
60582;SDS011;46415;47.536;19.066;2022-08-11T12:39:47;2.35;;;1.10;;
60582;SDS011;46415;47.536;19.066;2022-08-11T12:43:31;1.62;;;0.90;;
60582;SDS011;46415;47.536;19.066;2022-08-11T12:50:03;0.90;;;0.90;;
60582;SDS011;46415;47.536;19.066;2022-08-11T12:53:30;1.85;;;1.05;;
60582;SDS011;46415;47.536;19.066;2022-08-11T12:56:37;1.58;;;1.00;;
60582;SDS011;46415;47.536;19.066;2022-08-11T13:00:01;0.80;;;0.80;;
60582;SDS011;46415;47.536;19.066;2022-08-11T13:03:24;1.00;;;0.90;;
60582;SDS011;46415;47.536;19.066;2022-08-11T13:06:58;2.60;;;1.20;;
60582;SDS011;46415;47.536;19.066;2022-08-11T13:10:02;1.25;;;1.23;;
60582;SDS011;46415;47.536;19.066;2022-08-11T13:13:06;5.93;;;1.42;;
60582;SDS011;46415;47.536;19.066;2022-08-11T13:16:31;1.85;;;1.20;;
60582;SDS011;46415;47.536;19.066;2022-08-11T13:19:56;0.90;;;0.90;;
60582;SDS011;46415;47.536;19.066;2022-08-11T13:23:00;2.80;;;1.10;;
60582;SDS011;46415;47.536;19.066;2022-08-11T13:26:04;1.15;;;1.02;;
60582;SDS011;46415;47.536;19.066;2022-08-11T13:29:12;1.90;;;1.50;;
60582;SDS011;46415;47.536;19.066;2022-08-11T13:32:16;1.85;;;1.02;;
60582;SDS011;46415;47.536;19.066;2022-08-11T13:35:21;1.00;;;0.98;;
60582;SDS011;46415;47.536;19.066;2022-08-11T13:38:25;1.42;;;1.20;;
60582;SDS011;46415;47.536;19.066;2022-08-11T13:41:30;1.83;;;0.90;;
60582;SDS011;46415;47.536;19.066;2022-08-11T13:44:40;1.65;;;1.10;;
60582;SDS011;46415;47.536;19.066;2022-08-11T13:47:44;1.00;;;0.85;;
60582;SDS011;46415;47.536;19.066;2022-08-11T13:50:47;4.20;;;1.05;;
60582;SDS011;46415;47.536;19.066;2022-08-11T13:57:22;3.45;;;1.00;;
60582;SDS011;46415;47.536;19.066;2022-08-11T14:00:47;9.38;;;1.50;;
60582;SDS011;46415;47.536;19.066;2022-08-11T14:03:54;1.00;;;0.95;;
60582;SDS011;46415;47.536;19.066;2022-08-11T14:07:25;1.12;;;0.95;;
60582;SDS011;46415;47.536;19.066;2022-08-11T14:10:36;1.83;;;1.02;;
60582;SDS011;46415;47.536;19.066;2022-08-11T14:13:40;1.75;;;1.08;;
60582;SDS011;46415;47.536;19.066;2022-08-11T14:16:51;1.00;;;1.00;;
60582;SDS011;46415;47.536;19.066;2022-08-11T14:19:57;1.12;;;0.70;;
60582;SDS011;46415;47.536;19.066;2022-08-11T14:23:30;1.00;;;0.88;;
60582;SDS011;46415;47.536;19.066;2022-08-11T14:26:37;0.80;;;0.80;;
60582;SDS011;46415;47.536;19.066;2022-08-11T14:29:43;0.70;;;0.70;;
60582;SDS011;46415;47.536;19.066;2022-08-11T14:32:50;1.10;;;1.00;;
60582;SDS011;46415;47.536;19.066;2022-08-11T14:35:57;1.73;;;0.90;;
60582;SDS011;46415;47.536;19.066;2022-08-11T14:39:06;1.25;;;0.90;;
60582;SDS011;46415;47.536;19.066;2022-08-11T14:42:15;2.90;;;1.00;;
60582;SDS011;46415;47.536;19.066;2022-08-11T14:45:38;1.73;;;0.80;;
60582;SDS011;46415;47.536;19.066;2022-08-11T14:49:00;0.80;;;0.80;;
60582;SDS011;46415;47.536;19.066;2022-08-11T14:52:05;1.23;;;0.90;;
60582;SDS011;46415;47.536;19.066;2022-08-11T14:55:11;2.15;;;0.80;;
60582;SDS011;46415;47.536;19.066;2022-08-11T14:58:33;1.77;;;0.90;;
60582;SDS011;46415;47.536;19.066;2022-08-11T15:01:36;1.00;;;0.98;;
60582;SDS011;46415;47.536;19.066;2022-08-11T15:05:18;1.85;;;0.70;;
60582;SDS011;46415;47.536;19.066;2022-08-11T15:08:22;1.42;;;0.70;;
60582;SDS011;46415;47.536;19.066;2022-08-11T15:11:47;1.80;;;0.80;;
60582;SDS011;46415;47.536;19.066;2022-08-11T15:15:29;0.80;;;0.70;;
60582;SDS011;46415;47.536;19.066;2022-08-11T15:18:51;1.30;;;0.93;;
60582;SDS011;46415;47.536;19.066;2022-08-11T15:21:54;1.08;;;0.80;;
60582;SDS011;46415;47.536;19.066;2022-08-11T15:25:15;1.20;;;1.10;;
60582;SDS011;46415;47.536;19.066;2022-08-11T15:28:18;0.90;;;0.90;;
60582;SDS011;46415;47.536;19.066;2022-08-11T15:31:42;0.75;;;0.75;;
60582;SDS011;46415;47.536;19.066;2022-08-11T15:35:04;1.10;;;0.90;;
60582;SDS011;46415;47.536;19.066;2022-08-11T15:38:34;0.62;;;0.62;;
60582;SDS011;46415;47.536;19.066;2022-08-11T15:41:47;0.98;;;0.62;;
60582;SDS011;46415;47.536;19.066;2022-08-11T15:45:24;1.10;;;0.90;;
60582;SDS011;46415;47.536;19.066;2022-08-11T15:48:47;1.15;;;1.10;;
60582;SDS011;46415;47.536;19.066;2022-08-11T15:52:12;1.40;;;1.05;;
60582;SDS011;46415;47.536;19.066;2022-08-11T15:55:19;3.28;;;1.12;;
60582;SDS011;46415;47.536;19.066;2022-08-11T15:58:25;1.60;;;0.90;;
60582;SDS011;46415;47.536;19.066;2022-08-11T16:02:12;1.08;;;0.80;;
60582;SDS011;46415;47.536;19.066;2022-08-11T16:05:35;1.95;;;0.80;;
60582;SDS011;46415;47.536;19.066;2022-08-11T16:08:48;1.23;;;1.12;;
60582;SDS011;46415;47.536;19.066;2022-08-11T16:11:52;0.95;;;0.90;;
60582;SDS011;46415;47.536;19.066;2022-08-11T16:15:02;0.75;;;0.75;;
60582;SDS011;46415;47.536;19.066;2022-08-11T16:18:27;1.00;;;1.00;;
60582;SDS011;46415;47.536;19.066;2022-08-11T16:21:43;1.20;;;1.02;;
60582;SDS011;46415;47.536;19.066;2022-08-11T16:24:47;1.25;;;0.88;;
60582;SDS011;46415;47.536;19.066;2022-08-11T16:28:12;9.90;;;1.70;;
60582;SDS011;46415;47.536;19.066;2022-08-11T16:31:18;1.40;;;0.80;;
60582;SDS011;46415;47.536;19.066;2022-08-11T16:34:23;2.25;;;1.10;;
60582;SDS011;46415;47.536;19.066;2022-08-11T16:37:44;7.55;;;1.05;;
60582;SDS011;46415;47.536;19.066;2022-08-11T16:41:08;3.05;;;1.00;;
60582;SDS011;46415;47.536;19.066;2022-08-11T16:44:13;2.55;;;1.05;;
60582;SDS011;46415;47.536;19.066;2022-08-11T16:47:39;1.25;;;1.15;;
60582;SDS011;46415;47.536;19.066;2022-08-11T16:51:05;1.83;;;0.90;;
60582;SDS011;46415;47.536;19.066;2022-08-11T16:54:09;2.55;;;2.35;;
60582;SDS011;46415;47.536;19.066;2022-08-11T16:57:14;1.05;;;0.98;;
60582;SDS011;46415;47.536;19.066;2022-08-11T17:00:38;0.93;;;0.73;;
60582;SDS011;46415;47.536;19.066;2022-08-11T17:03:44;3.33;;;1.30;;
60582;SDS011;46415;47.536;19.066;2022-08-11T17:07:11;3.45;;;1.30;;
60582;SDS011;46415;47.536;19.066;2022-08-11T17:10:52;21.15;;;2.33;;
60582;SDS011;46415;47.536;19.066;2022-08-11T17:14:20;9.68;;;1.83;;
60582;SDS011;46415;47.536;19.066;2022-08-11T17:17:37;12.32;;;2.30;;
60582;SDS011;46415;47.536;19.066;2022-08-11T17:20:41;8.10;;;1.75;;
60582;SDS011;46415;47.536;19.066;2022-08-11T17:23:47;3.45;;;1.20;;
60582;SDS011;46415;47.536;19.066;2022-08-11T17:26:54;3.37;;;1.23;;
60582;SDS011;46415;47.536;19.066;2022-08-11T17:30:02;6.15;;;1.55;;
60582;SDS011;46415;47.536;19.066;2022-08-11T17:33:07;3.55;;;1.42;;
60582;SDS011;46415;47.536;19.066;2022-08-11T17:36:30;2.30;;;1.35;;
60582;SDS011;46415;47.536;19.066;2022-08-11T17:39:34;4.97;;;1.50;;
60582;SDS011;46415;47.536;19.066;2022-08-11T17:42:38;2.85;;;1.15;;
60582;SDS011;46415;47.536;19.066;2022-08-11T17:46:01;3.80;;;1.40;;
60582;SDS011;46415;47.536;19.066;2022-08-11T17:49:23;4.93;;;1.17;;
60582;SDS011;46415;47.536;19.066;2022-08-11T17:52:27;1.80;;;1.40;;
60582;SDS011;46415;47.536;19.066;2022-08-11T17:55:50;3.20;;;1.40;;
60582;SDS011;46415;47.536;19.066;2022-08-11T17:59:12;2.10;;;1.08;;
60582;SDS011;46415;47.536;19.066;2022-08-11T18:02:39;2.45;;;1.17;;
60582;SDS011;46415;47.536;19.066;2022-08-11T18:06:02;1.33;;;1.27;;
60582;SDS011;46415;47.536;19.066;2022-08-11T18:09:08;2.83;;;1.17;;
60582;SDS011;46415;47.536;19.066;2022-08-11T18:12:34;2.07;;;1.20;;
60582;SDS011;46415;47.536;19.066;2022-08-11T18:15:55;1.62;;;1.15;;
60582;SDS011;46415;47.536;19.066;2022-08-11T18:19:17;2.67;;;1.42;;
60582;SDS011;46415;47.536;19.066;2022-08-11T18:22:39;1.70;;;1.08;;
60582;SDS011;46415;47.536;19.066;2022-08-11T18:26:03;2.12;;;1.05;;
60582;SDS011;46415;47.536;19.066;2022-08-11T18:29:26;1.25;;;1.15;;
60582;SDS011;46415;47.536;19.066;2022-08-11T18:32:51;2.97;;;1.10;;
60582;SDS011;46415;47.536;19.066;2022-08-11T18:36:35;1.48;;;1.33;;
60582;SDS011;46415;47.536;19.066;2022-08-11T18:40:01;1.87;;;1.10;;
60582;SDS011;46415;47.536;19.066;2022-08-11T18:43:27;0.98;;;0.98;;
60582;SDS011;46415;47.536;19.066;2022-08-11T18:46:52;2.17;;;1.20;;
60582;SDS011;46415;47.536;19.066;2022-08-11T18:50:16;1.50;;;0.75;;
60582;SDS011;46415;47.536;19.066;2022-08-11T18:53:42;2.15;;;1.23;;
60582;SDS011;46415;47.536;19.066;2022-08-11T18:57:07;2.05;;;1.00;;
60582;SDS011;46415;47.536;19.066;2022-08-11T19:00:33;1.23;;;1.00;;
60582;SDS011;46415;47.536;19.066;2022-08-11T19:03:57;1.20;;;1.10;;
60582;SDS011;46415;47.536;19.066;2022-08-11T19:07:22;1.30;;;1.05;;
60582;SDS011;46415;47.536;19.066;2022-08-11T19:10:45;1.35;;;0.98;;
60582;SDS011;46415;47.536;19.066;2022-08-11T19:14:08;2.42;;;1.37;;
60582;SDS011;46415;47.536;19.066;2022-08-11T19:17:31;0.95;;;0.90;;
60582;SDS011;46415;47.536;19.066;2022-08-11T19:20:56;3.80;;;1.30;;
60582;SDS011;46415;47.536;19.066;2022-08-11T19:24:19;1.45;;;1.33;;
60582;SDS011;46415;47.536;19.066;2022-08-11T19:27:45;3.08;;;1.30;;
60582;SDS011;46415;47.536;19.066;2022-08-11T19:31:08;3.35;;;1.30;;
60582;SDS011;46415;47.536;19.066;2022-08-11T19:34:31;2.87;;;1.60;;
60582;SDS011;46415;47.536;19.066;2022-08-11T19:37:53;8.90;;;1.70;;
60582;SDS011;46415;47.536;19.066;2022-08-11T19:41:16;3.58;;;1.20;;
60582;SDS011;46415;47.536;19.066;2022-08-11T19:45:00;1.92;;;1.30;;
60582;SDS011;46415;47.536;19.066;2022-08-11T19:48:24;4.30;;;1.40;;
60582;SDS011;46415;47.536;19.066;2022-08-11T19:51:46;1.60;;;1.05;;
60582;SDS011;46415;47.536;19.066;2022-08-11T19:55:10;1.98;;;1.40;;
60582;SDS011;46415;47.536;19.066;2022-08-11T19:58:35;3.60;;;1.30;;
60582;SDS011;46415;47.536;19.066;2022-08-11T20:01:59;2.00;;;1.37;;
60582;SDS011;46415;47.536;19.066;2022-08-11T20:05:20;1.87;;;1.15;;
60582;SDS011;46415;47.536;19.066;2022-08-11T20:09:01;2.78;;;1.00;;
60582;SDS011;46415;47.536;19.066;2022-08-11T20:12:24;2.03;;;1.05;;
60582;SDS011;46415;47.536;19.066;2022-08-11T20:15:47;3.03;;;1.25;;
60582;SDS011;46415;47.536;19.066;2022-08-11T20:19:11;1.55;;;1.30;;
60582;SDS011;46415;47.536;19.066;2022-08-11T20:22:54;1.65;;;1.27;;
60582;SDS011;46415;47.536;19.066;2022-08-11T20:26:20;1.02;;;1.02;;
60582;SDS011;46415;47.536;19.066;2022-08-11T20:29:42;1.55;;;1.30;;
60582;SDS011;46415;47.536;19.066;2022-08-11T20:33:04;3.28;;;1.17;;
60582;SDS011;46415;47.536;19.066;2022-08-11T20:36:29;0.88;;;0.88;;
60582;SDS011;46415;47.536;19.066;2022-08-11T20:39:56;1.15;;;1.12;;
60582;SDS011;46415;47.536;19.066;2022-08-11T20:43:25;1.30;;;1.17;;
60582;SDS011;46415;47.536;19.066;2022-08-11T20:47:14;2.50;;;1.10;;
60582;SDS011;46415;47.536;19.066;2022-08-11T20:50:56;1.52;;;0.90;;
60582;SDS011;46415;47.536;19.066;2022-08-11T20:54:18;1.27;;;0.98;;
60582;SDS011;46415;47.536;19.066;2022-08-11T20:57:45;1.93;;;1.10;;
60582;SDS011;46415;47.536;19.066;2022-08-11T21:01:19;1.25;;;0.98;;
60582;SDS011;46415;47.536;19.066;2022-08-11T21:04:43;2.50;;;1.27;;
60582;SDS011;46415;47.536;19.066;2022-08-11T21:08:05;1.40;;;1.00;;
60582;SDS011;46415;47.536;19.066;2022-08-11T21:11:29;1.48;;;1.00;;
60582;SDS011;46415;47.536;19.066;2022-08-11T21:14:53;2.03;;;1.23;;
60582;SDS011;46415;47.536;19.066;2022-08-11T21:18:35;1.12;;;1.10;;
60582;SDS011;46415;47.536;19.066;2022-08-11T21:22:01;1.33;;;1.00;;
60582;SDS011;46415;47.536;19.066;2022-08-11T21:25:29;1.12;;;1.02;;
60582;SDS011;46415;47.536;19.066;2022-08-11T21:28:56;1.10;;;1.00;;
60582;SDS011;46415;47.536;19.066;2022-08-11T21:32:21;1.00;;;1.00;;
60582;SDS011;46415;47.536;19.066;2022-08-11T21:35:44;1.37;;;0.90;;
60582;SDS011;46415;47.536;19.066;2022-08-11T21:39:05;1.12;;;1.10;;
60582;SDS011;46415;47.536;19.066;2022-08-11T21:42:31;1.05;;;0.98;;
60582;SDS011;46415;47.536;19.066;2022-08-11T21:45:55;1.20;;;1.10;;
60582;SDS011;46415;47.536;19.066;2022-08-11T21:49:20;1.67;;;1.20;;
60582;SDS011;46415;47.536;19.066;2022-08-11T21:52:42;3.20;;;1.10;;
60582;SDS011;46415;47.536;19.066;2022-08-11T21:56:04;1.62;;;1.17;;
60582;SDS011;46415;47.536;19.066;2022-08-11T21:59:37;18.67;;;3.28;;
60582;SDS011;46415;47.536;19.066;2022-08-11T22:03:12;16.20;;;3.50;;
60582;SDS011;46415;47.536;19.066;2022-08-11T22:06:51;21.50;;;3.37;;
60582;SDS011;46415;47.536;19.066;2022-08-11T22:10:13;17.87;;;3.87;;
60582;SDS011;46415;47.536;19.066;2022-08-11T22:13:44;9.88;;;2.87;;
60582;SDS011;46415;47.536;19.066;2022-08-11T22:17:09;17.00;;;3.03;;
60582;SDS011;46415;47.536;19.066;2022-08-11T22:20:30;12.48;;;2.83;;
60582;SDS011;46415;47.536;19.066;2022-08-11T22:23:53;15.18;;;2.22;;
60582;SDS011;46415;47.536;19.066;2022-08-11T22:27:31;5.75;;;1.98;;
60582;SDS011;46415;47.536;19.066;2022-08-11T22:30:53;8.52;;;1.30;;
60582;SDS011;46415;47.536;19.066;2022-08-11T22:34:17;1.45;;;1.35;;
60582;SDS011;46415;47.536;19.066;2022-08-11T22:37:55;1.30;;;1.20;;
60582;SDS011;46415;47.536;19.066;2022-08-11T22:41:18;4.43;;;1.85;;
60582;SDS011;46415;47.536;19.066;2022-08-11T22:44:41;1.20;;;1.10;;
60582;SDS011;46415;47.536;19.066;2022-08-11T22:48:04;1.60;;;1.37;;